Telegraph Creek, Canada
Current Conditions -  °F | °C
As of 5:00 PM on Friday 19 Dec 2014 (Local Time) from CYDL Reporting Station
Broken Clouds Broken Clouds  
Wind Chill: -2°   Ceiling: 19000
Heat Index:   Visibility: 9mi
Dew Point:   Wind: 5mph
Humidity: 85%   Direction: 50°NE
Pressure: 29.41"   Gusts: NA
Location:  57.9°N, 131.15°W
Report Text: CYDL 200100Z AUTO 05004KT 9SM SCT060 BKN190 M14/M16 A2941 RMK SLP008
Loading
Personal Weather Stations






























Interactive Weather Map New forecast layout! Learn more

10-Day Weather Forecast

Advertisements
Track Severe Weather on mobile